sensor_id;sensor_type;location;lat;lon;timestamp;pressure;altitude;pressure_sealevel;temperature;humidity
73455;BME280;61690;51.824;6.306;2022-08-19T00:00:17;101241.47;;;22.47;57.92
73455;BME280;61690;51.824;6.306;2022-08-19T00:02:43;101243.94;;;22.62;57.34
73455;BME280;61690;51.824;6.306;2022-08-19T00:05:10;101242.09;;;22.51;57.96
73455;BME280;61690;51.824;6.306;2022-08-19T00:07:36;101238.22;;;22.33;58.79
73455;BME280;61690;51.824;6.306;2022-08-19T00:10:04;101226.72;;;22.67;57.34
73455;BME280;61690;51.824;6.306;2022-08-19T00:12:30;101231.16;;;22.56;57.68
73455;BME280;61690;51.824;6.306;2022-08-19T00:14:56;101234.84;;;22.30;58.64
73455;BME280;61690;51.824;6.306;2022-08-19T00:17:21;101227.31;;;22.13;59.56
73455;BME280;61690;51.824;6.306;2022-08-19T00:19:46;101224.97;;;22.08;59.50
73455;BME280;61690;51.824;6.306;2022-08-19T00:22:12;101231.84;;;22.00;59.87
73455;BME280;61690;51.824;6.306;2022-08-19T00:24:37;101223.88;;;22.00;59.73
73455;BME280;61690;51.824;6.306;2022-08-19T00:27:04;101223.88;;;22.11;58.63
73455;BME280;61690;51.824;6.306;2022-08-19T00:29:30;101221.91;;;21.90;59.81
73455;BME280;61690;51.824;6.306;2022-08-19T00:31:56;101224.81;;;21.99;58.87
73455;BME280;61690;51.824;6.306;2022-08-19T00:34:23;101228.22;;;22.01;58.63
73455;BME280;61690;51.824;6.306;2022-08-19T00:36:52;101232.34;;;22.16;58.60
73455;BME280;61690;51.824;6.306;2022-08-19T00:39:17;101226.19;;;21.80;60.10
73455;BME280;61690;51.824;6.306;2022-08-19T00:41:44;101233.19;;;21.81;59.35
73455;BME280;61690;51.824;6.306;2022-08-19T00:44:18;101228.66;;;21.95;58.76
73455;BME280;61690;51.824;6.306;2022-08-19T00:46:46;101242.22;;;22.14;58.46
73455;BME280;61690;51.824;6.306;2022-08-19T00:49:19;101238.13;;;22.10;58.50
73455;BME280;61690;51.824;6.306;2022-08-19T00:51:48;101234.13;;;22.40;57.15
73455;BME280;61690;51.824;6.306;2022-08-19T00:54:15;101231.63;;;22.61;55.97
73455;BME280;61690;51.824;6.306;2022-08-19T00:56:42;101235.13;;;22.50;56.72
73455;BME280;61690;51.824;6.306;2022-08-19T00:59:09;101231.00;;;22.35;57.39
73455;BME280;61690;51.824;6.306;2022-08-19T01:01:36;101228.38;;;22.46;56.63
73455;BME280;61690;51.824;6.306;2022-08-19T01:04:02;101229.31;;;22.45;56.89
73455;BME280;61690;51.824;6.306;2022-08-19T01:06:28;101226.91;;;22.30;57.13
73455;BME280;61690;51.824;6.306;2022-08-19T01:08:55;101231.72;;;22.37;57.14
73455;BME280;61690;51.824;6.306;2022-08-19T01:11:21;101227.38;;;22.36;57.02
73455;BME280;61690;51.824;6.306;2022-08-19T01:13:46;101225.91;;;22.31;57.12
73455;BME280;61690;51.824;6.306;2022-08-19T01:16:12;101221.75;;;21.81;58.96
73455;BME280;61690;51.824;6.306;2022-08-19T01:18:41;101225.81;;;22.09;57.97
73455;BME280;61690;51.824;6.306;2022-08-19T01:23:42;101229.06;;;22.37;56.95
73455;BME280;61690;51.824;6.306;2022-08-19T01:26:17;101223.06;;;22.46;56.11
73455;BME280;61690;51.824;6.306;2022-08-19T01:28:44;101226.22;;;22.16;57.46
73455;BME280;61690;51.824;6.306;2022-08-19T01:31:14;101231.28;;;22.19;57.21
73455;BME280;61690;51.824;6.306;2022-08-19T01:33:40;101223.94;;;22.22;57.22
73455;BME280;61690;51.824;6.306;2022-08-19T01:36:11;101233.28;;;21.80;58.67
73455;BME280;61690;51.824;6.306;2022-08-19T01:38:39;101242.66;;;21.97;58.14
73455;BME280;61690;51.824;6.306;2022-08-19T01:41:06;101239.41;;;22.04;57.69
73455;BME280;61690;51.824;6.306;2022-08-19T01:43:33;101236.44;;;22.20;56.85
73455;BME280;61690;51.824;6.306;2022-08-19T01:45:59;101236.41;;;22.33;55.94
73455;BME280;61690;51.824;6.306;2022-08-19T01:48:24;101231.03;;;22.57;55.37
73455;BME280;61690;51.824;6.306;2022-08-19T01:50:49;101238.38;;;22.42;55.92
73455;BME280;61690;51.824;6.306;2022-08-19T01:53:15;101235.25;;;22.13;57.02
73455;BME280;61690;51.824;6.306;2022-08-19T01:55:42;101237.59;;;22.05;57.03
73455;BME280;61690;51.824;6.306;2022-08-19T01:58:11;101236.66;;;22.41;54.87
73455;BME280;61690;51.824;6.306;2022-08-19T02:00:37;101230.78;;;22.60;54.50
73455;BME280;61690;51.824;6.306;2022-08-19T02:03:02;101234.56;;;22.69;53.92
73455;BME280;61690;51.824;6.306;2022-08-19T02:05:28;101233.22;;;22.63;54.44
73455;BME280;61690;51.824;6.306;2022-08-19T02:07:55;101231.28;;;22.54;54.29
73455;BME280;61690;51.824;6.306;2022-08-19T02:10:21;101239.59;;;22.83;52.54
73455;BME280;61690;51.824;6.306;2022-08-19T02:12:48;101240.34;;;22.97;52.14
73455;BME280;61690;51.824;6.306;2022-08-19T02:15:15;101236.34;;;23.02;51.79
73455;BME280;61690;51.824;6.306;2022-08-19T02:17:40;101236.03;;;23.07;51.41
73455;BME280;61690;51.824;6.306;2022-08-19T02:20:07;101241.81;;;23.12;51.15
73455;BME280;61690;51.824;6.306;2022-08-19T02:22:33;101236.50;;;23.12;50.88
73455;BME280;61690;51.824;6.306;2022-08-19T02:24:58;101235.44;;;23.15;50.74
73455;BME280;61690;51.824;6.306;2022-08-19T02:27:24;101234.34;;;23.17;50.84
73455;BME280;61690;51.824;6.306;2022-08-19T02:29:51;101233.50;;;23.17;50.99
73455;BME280;61690;51.824;6.306;2022-08-19T02:32:17;101228.31;;;23.15;50.81
73455;BME280;61690;51.824;6.306;2022-08-19T02:34:43;101228.44;;;23.14;50.70
73455;BME280;61690;51.824;6.306;2022-08-19T02:37:09;101226.72;;;23.13;50.88
73455;BME280;61690;51.824;6.306;2022-08-19T02:39:54;101229.75;;;23.08;51.03
73455;BME280;61690;51.824;6.306;2022-08-19T02:42:19;101233.22;;;23.20;50.49
73455;BME280;61690;51.824;6.306;2022-08-19T02:44:45;101238.31;;;23.23;50.25
73455;BME280;61690;51.824;6.306;2022-08-19T02:47:10;101238.31;;;23.23;50.23
73455;BME280;61690;51.824;6.306;2022-08-19T02:49:36;101248.66;;;23.26;50.46
73455;BME280;61690;51.824;6.306;2022-08-19T02:52:02;101247.00;;;23.25;50.48
73455;BME280;61690;51.824;6.306;2022-08-19T02:54:28;101249.66;;;23.25;50.28
73455;BME280;61690;51.824;6.306;2022-08-19T02:56:53;101253.03;;;23.27;50.50
73455;BME280;61690;51.824;6.306;2022-08-19T02:59:19;101253.75;;;23.29;50.29
73455;BME280;61690;51.824;6.306;2022-08-19T03:01:45;101250.13;;;23.30;50.70
73455;BME280;61690;51.824;6.306;2022-08-19T03:04:13;101247.47;;;23.30;50.88
73455;BME280;61690;51.824;6.306;2022-08-19T03:06:41;101249.88;;;23.33;51.00
73455;BME280;61690;51.824;6.306;2022-08-19T03:09:07;101244.69;;;23.32;50.95
73455;BME280;61690;51.824;6.306;2022-08-19T03:11:33;101243.72;;;23.33;50.79
73455;BME280;61690;51.824;6.306;2022-08-19T03:13:59;101237.72;;;23.19;51.48
73455;BME280;61690;51.824;6.306;2022-08-19T03:16:27;101242.75;;;23.00;51.79
73455;BME280;61690;51.824;6.306;2022-08-19T03:18:55;101238.81;;;23.17;51.20
73455;BME280;61690;51.824;6.306;2022-08-19T03:21:25;101232.75;;;23.26;50.47
73455;BME280;61690;51.824;6.306;2022-08-19T03:23:55;101239.50;;;23.30;50.32
73455;BME280;61690;51.824;6.306;2022-08-19T03:26:20;101240.22;;;23.32;50.14
73455;BME280;61690;51.824;6.306;2022-08-19T03:28:46;101239.84;;;23.37;49.59
73455;BME280;61690;51.824;6.306;2022-08-19T03:31:16;101245.16;;;23.37;49.62
73455;BME280;61690;51.824;6.306;2022-08-19T03:33:41;101244.56;;;23.33;49.42
73455;BME280;61690;51.824;6.306;2022-08-19T03:36:17;101244.31;;;23.36;49.05
73455;BME280;61690;51.824;6.306;2022-08-19T03:38:45;101240.94;;;23.34;49.42
73455;BME280;61690;51.824;6.306;2022-08-19T03:41:15;101247.81;;;23.37;49.26
73455;BME280;61690;51.824;6.306;2022-08-19T03:43:42;101254.22;;;23.34;49.06
73455;BME280;61690;51.824;6.306;2022-08-19T03:46:11;101248.81;;;23.36;49.12
73455;BME280;61690;51.824;6.306;2022-08-19T03:48:37;101249.25;;;23.29;49.47
73455;BME280;61690;51.824;6.306;2022-08-19T03:51:04;101246.50;;;23.08;50.07
73455;BME280;61690;51.824;6.306;2022-08-19T03:53:31;101249.16;;;23.08;50.37
73455;BME280;61690;51.824;6.306;2022-08-19T03:55:57;101247.38;;;23.09;50.00
73455;BME280;61690;51.824;6.306;2022-08-19T03:58:26;101241.47;;;23.17;49.91
73455;BME280;61690;51.824;6.306;2022-08-19T04:00:55;101239.88;;;23.14;50.07
73455;BME280;61690;51.824;6.306;2022-08-19T04:03:20;101245.19;;;23.25;49.50
73455;BME280;61690;51.824;6.306;2022-08-19T04:05:46;101240.34;;;23.31;49.36
73455;BME280;61690;51.824;6.306;2022-08-19T04:08:12;101242.03;;;23.32;49.05
73455;BME280;61690;51.824;6.306;2022-08-19T04:10:37;101242.03;;;23.32;48.96
73455;BME280;61690;51.824;6.306;2022-08-19T04:13:04;101241.06;;;23.33;48.91
73455;BME280;61690;51.824;6.306;2022-08-19T04:15:31;101238.28;;;23.34;48.75
73455;BME280;61690;51.824;6.306;2022-08-19T04:18:04;101236.59;;;23.33;48.80
73455;BME280;61690;51.824;6.306;2022-08-19T04:20:29;101234.66;;;23.24;49.54
73455;BME280;61690;51.824;6.306;2022-08-19T04:22:56;101238.69;;;23.07;50.18
73455;BME280;61690;51.824;6.306;2022-08-19T04:25:22;101231.78;;;23.16;50.31
73455;BME280;61690;51.824;6.306;2022-08-19T04:27:47;101231.19;;;23.12;50.19
73455;BME280;61690;51.824;6.306;2022-08-19T04:30:13;101236.75;;;23.09;50.35
73455;BME280;61690;51.824;6.306;2022-08-19T04:32:39;101246.78;;;23.05;50.13
73455;BME280;61690;51.824;6.306;2022-08-19T04:35:05;101239.75;;;23.04;49.79
73455;BME280;61690;51.824;6.306;2022-08-19T04:37:30;101236.84;;;22.96;50.23
73455;BME280;61690;51.824;6.306;2022-08-19T04:39:58;101235.41;;;22.92;50.84
73455;BME280;61690;51.824;6.306;2022-08-19T04:42:42;101238.53;;;22.86;50.50
73455;BME280;61690;51.824;6.306;2022-08-19T04:45:11;101235.03;;;22.85;50.43
73455;BME280;61690;51.824;6.306;2022-08-19T04:47:37;101246.63;;;22.84;50.64
73455;BME280;61690;51.824;6.306;2022-08-19T04:50:05;101245.28;;;22.79;50.67
73455;BME280;61690;51.824;6.306;2022-08-19T04:52:30;101239.97;;;22.79;50.37
73455;BME280;61690;51.824;6.306;2022-08-19T04:54:56;101240.31;;;22.74;50.24
73455;BME280;61690;51.824;6.306;2022-08-19T04:57:22;101241.53;;;22.70;50.32
73455;BME280;61690;51.824;6.306;2022-08-19T04:59:47;101239.84;;;22.69;50.17
73455;BME280;61690;51.824;6.306;2022-08-19T05:02:13;101246.38;;;22.65;50.35
73455;BME280;61690;51.824;6.306;2022-08-19T05:04:38;101250.34;;;22.59;51.03
73455;BME280;61690;51.824;6.306;2022-08-19T05:07:05;101252.25;;;22.57;51.21
73455;BME280;61690;51.824;6.306;2022-08-19T05:09:30;101245.25;;;22.56;51.21
73455;BME280;61690;51.824;6.306;2022-08-19T05:11:55;101245.72;;;22.50;51.75
73455;BME280;61690;51.824;6.306;2022-08-19T05:14:21;101253.19;;;22.45;52.13
73455;BME280;61690;51.824;6.306;2022-08-19T05:16:47;101249.81;;;22.43;52.17
73455;BME280;61690;51.824;6.306;2022-08-19T05:19:13;101244.72;;;22.40;52.88
73455;BME280;61690;51.824;6.306;2022-08-19T05:21:57;101252.09;;;22.36;53.10
73455;BME280;61690;51.824;6.306;2022-08-19T05:24:41;101252.31;;;22.33;53.50
73455;BME280;61690;51.824;6.306;2022-08-19T05:27:06;101253.88;;;22.36;53.70
73455;BME280;61690;51.824;6.306;2022-08-19T05:29:33;101252.31;;;22.33;53.96
73455;BME280;61690;51.824;6.306;2022-08-19T05:32:03;101249.78;;;22.31;53.98
73455;BME280;61690;51.824;6.306;2022-08-19T05:34:30;101252.97;;;22.24;54.22
73455;BME280;61690;51.824;6.306;2022-08-19T05:36:58;101255.00;;;22.20;54.33
73455;BME280;61690;51.824;6.306;2022-08-19T05:39:27;101252.50;;;22.19;54.72
73455;BME280;61690;51.824;6.306;2022-08-19T05:41:55;101250.16;;;22.14;54.92
73455;BME280;61690;51.824;6.306;2022-08-19T05:44:25;101251.88;;;22.15;55.42
73455;BME280;61690;51.824;6.306;2022-08-19T05:46:52;101252.44;;;22.07;56.77
73455;BME280;61690;51.824;6.306;2022-08-19T05:49:19;101249.81;;;22.07;56.92
73455;BME280;61690;51.824;6.306;2022-08-19T05:51:44;101250.38;;;22.00;57.62
73455;BME280;61690;51.824;6.306;2022-08-19T05:54:10;101259.25;;;21.99;58.17
73455;BME280;61690;51.824;6.306;2022-08-19T05:56:39;101256.81;;;21.96;58.80
73455;BME280;61690;51.824;6.306;2022-08-19T05:59:05;101247.94;;;21.97;59.12
73455;BME280;61690;51.824;6.306;2022-08-19T06:01:36;101250.94;;;21.92;59.36
73455;BME280;61690;51.824;6.306;2022-08-19T06:04:03;101248.50;;;21.89;59.74
73455;BME280;61690;51.824;6.306;2022-08-19T06:06:28;101248.41;;;21.90;59.88
73455;BME280;61690;51.824;6.306;2022-08-19T06:08:54;101255.38;;;21.91;59.87
73455;BME280;61690;51.824;6.306;2022-08-19T06:11:32;101256.75;;;21.73;60.70
73455;BME280;61690;51.824;6.306;2022-08-19T06:14:04;101260.13;;;21.75;60.69
73455;BME280;61690;51.824;6.306;2022-08-19T06:16:33;101260.84;;;21.77;60.71
73455;BME280;61690;51.824;6.306;2022-08-19T06:19:01;101256.06;;;21.82;60.85
73455;BME280;61690;51.824;6.306;2022-08-19T06:21:28;101256.59;;;21.74;61.08
73455;BME280;61690;51.824;6.306;2022-08-19T06:23:55;101265.69;;;21.83;61.16
73455;BME280;61690;51.824;6.306;2022-08-19T06:26:21;101259.09;;;21.89;60.99
73455;BME280;61690;51.824;6.306;2022-08-19T06:28:47;101266.69;;;21.93;60.75
73455;BME280;61690;51.824;6.306;2022-08-19T06:31:19;101270.84;;;21.98;60.73
73455;BME280;61690;51.824;6.306;2022-08-19T06:33:47;101271.88;;;21.95;61.25
73455;BME280;61690;51.824;6.306;2022-08-19T06:36:34;101271.78;;;21.97;61.56
73455;BME280;61690;51.824;6.306;2022-08-19T06:39:05;101272.97;;;21.92;62.03
73455;BME280;61690;51.824;6.306;2022-08-19T06:41:33;101274.88;;;21.90;62.50
73455;BME280;61690;51.824;6.306;2022-08-19T06:43:59;101272.97;;;21.92;62.71
73455;BME280;61690;51.824;6.306;2022-08-19T06:46:25;101281.13;;;21.89;62.79
73455;BME280;61690;51.824;6.306;2022-08-19T06:48:52;101284.13;;;21.85;63.17
73455;BME280;61690;51.824;6.306;2022-08-19T06:51:19;101285.22;;;21.82;63.46
73455;BME280;61690;51.824;6.306;2022-08-19T06:53:49;101285.22;;;21.82;63.55
73455;BME280;61690;51.824;6.306;2022-08-19T06:56:16;101292.91;;;21.85;63.78
73455;BME280;61690;51.824;6.306;2022-08-19T06:58:42;101288.44;;;21.86;63.63
73455;BME280;61690;51.824;6.306;2022-08-19T07:01:08;101294.72;;;21.85;63.67
73455;BME280;61690;51.824;6.306;2022-08-19T07:03:35;101287.72;;;21.84;64.13
73455;BME280;61690;51.824;6.306;2022-08-19T07:06:06;101287.59;;;21.85;63.87
73455;BME280;61690;51.824;6.306;2022-08-19T07:08:33;101292.69;;;21.88;63.95
73455;BME280;61690;51.824;6.306;2022-08-19T07:10:59;101287.84;;;21.82;64.02
73455;BME280;61690;51.824;6.306;2022-08-19T07:13:24;101293.91;;;21.71;64.42
73455;BME280;61690;51.824;6.306;2022-08-19T07:15:50;101294.38;;;21.89;63.60
73455;BME280;61690;51.824;6.306;2022-08-19T07:18:18;101289.59;;;21.95;64.03
73455;BME280;61690;51.824;6.306;2022-08-19T07:20:43;101299.34;;;21.94;63.87
73455;BME280;61690;51.824;6.306;2022-08-19T07:23:09;101301.41;;;21.78;64.81
73455;BME280;61690;51.824;6.306;2022-08-19T07:25:38;101300.41;;;21.91;64.37
73455;BME280;61690;51.824;6.306;2022-08-19T07:28:04;101306.84;;;22.00;64.25
73455;BME280;61690;51.824;6.306;2022-08-19T07:30:30;101305.75;;;22.03;64.03
73455;BME280;61690;51.824;6.306;2022-08-19T07:32:55;101306.16;;;22.09;63.93
73455;BME280;61690;51.824;6.306;2022-08-19T07:35:21;101309.44;;;22.13;64.10
73455;BME280;61690;51.824;6.306;2022-08-19T07:37:47;101313.50;;;22.06;79.92
73455;BME280;61690;51.824;6.306;2022-08-19T07:40:12;101310.00;;;21.44;69.28
73455;BME280;61690;51.824;6.306;2022-08-19T07:42:38;101304.34;;;21.36;68.71
73455;BME280;61690;51.824;6.306;2022-08-19T07:45:05;101301.06;;;21.45;68.07
73455;BME280;61690;51.824;6.306;2022-08-19T07:47:31;101311.97;;;21.53;67.17
73455;BME280;61690;51.824;6.306;2022-08-19T07:49:56;101299.59;;;21.54;67.38
73455;BME280;61690;51.824;6.306;2022-08-19T07:52:22;101303.81;;;21.57;66.97
73455;BME280;61690;51.824;6.306;2022-08-19T07:54:48;101309.63;;;21.62;66.91
73455;BME280;61690;51.824;6.306;2022-08-19T07:57:15;101315.66;;;21.64;67.06
73455;BME280;61690;51.824;6.306;2022-08-19T07:59:41;101316.50;;;21.64;67.33
73455;BME280;61690;51.824;6.306;2022-08-19T08:02:08;101322.75;;;21.63;67.18
73455;BME280;61690;51.824;6.306;2022-08-19T08:04:33;101326.00;;;21.67;67.35
73455;BME280;61690;51.824;6.306;2022-08-19T08:07:18;101328.44;;;21.70;67.15
73455;BME280;61690;51.824;6.306;2022-08-19T08:10:05;101328.22;;;21.73;66.83
73455;BME280;61690;51.824;6.306;2022-08-19T08:12:36;101328.97;;;21.75;66.81
73455;BME280;61690;51.824;6.306;2022-08-19T08:15:07;101330.44;;;21.79;66.54
73455;BME280;61690;51.824;6.306;2022-08-19T08:17:34;101333.72;;;21.83;65.84
73455;BME280;61690;51.824;6.306;2022-08-19T08:20:04;101333.38;;;21.87;65.64
73455;BME280;61690;51.824;6.306;2022-08-19T08:22:32;101341.84;;;21.92;65.35
73455;BME280;61690;51.824;6.306;2022-08-19T08:25:20;101341.91;;;22.04;64.89
73455;BME280;61690;51.824;6.306;2022-08-19T08:27:48;101345.38;;;22.04;64.63
73455;BME280;61690;51.824;6.306;2022-08-19T08:30:24;101335.63;;;22.05;64.32
73455;BME280;61690;51.824;6.306;2022-08-19T08:32:50;101340.91;;;22.05;64.10
73455;BME280;61690;51.824;6.306;2022-08-19T08:35:24;101339.72;;;22.09;64.05
73455;BME280;61690;51.824;6.306;2022-08-19T08:37:52;101338.78;;;22.10;63.48
73455;BME280;61690;51.824;6.306;2022-08-19T08:43:09;101342.91;;;22.14;63.00
73455;BME280;61690;51.824;6.306;2022-08-19T08:45:49;101341.09;;;22.15;62.77
73455;BME280;61690;51.824;6.306;2022-08-19T08:48:23;101344.47;;;22.17;62.83
73455;BME280;61690;51.824;6.306;2022-08-19T08:50:50;101340.03;;;22.17;62.59
73455;BME280;61690;51.824;6.306;2022-08-19T08:53:45;101336.19;;;22.21;62.34
73455;BME280;61690;51.824;6.306;2022-08-19T08:56:12;101334.28;;;22.23;62.14
73455;BME280;61690;51.824;6.306;2022-08-19T08:58:57;101335.13;;;22.24;61.94
73455;BME280;61690;51.824;6.306;2022-08-19T09:01:36;101336.84;;;22.25;61.96
73455;BME280;61690;51.824;6.306;2022-08-19T09:04:05;101337.59;;;22.27;61.73
73455;BME280;61690;51.824;6.306;2022-08-19T09:09:36;101332.91;;;22.30;61.33
73455;BME280;61690;51.824;6.306;2022-08-19T09:15:10;101329.28;;;22.31;61.12
73455;BME280;61690;51.824;6.306;2022-08-19T09:17:37;101332.66;;;22.34;61.17
73455;BME280;61690;51.824;6.306;2022-08-19T09:22:53;101333.38;;;22.36;61.04
73455;BME280;61690;51.824;6.306;2022-08-19T09:25:20;101333.38;;;22.36;60.91
73455;BME280;61690;51.824;6.306;2022-08-19T09:27:48;101331.47;;;22.38;60.65
73455;BME280;61690;51.824;6.306;2022-08-19T09:30:18;101325.22;;;22.39;60.61
73455;BME280;61690;51.824;6.306;2022-08-19T09:32:56;101332.09;;;22.41;60.43
73455;BME280;61690;51.824;6.306;2022-08-19T09:35:24;101325.94;;;22.41;60.65
73455;BME280;61690;51.824;6.306;2022-08-19T09:37:50;101327.66;;;22.42;60.36
73455;BME280;61690;51.824;6.306;2022-08-19T09:40:17;101325.72;;;22.44;60.34
73455;BME280;61690;51.824;6.306;2022-08-19T09:42:43;101330.88;;;22.45;60.30
73455;BME280;61690;51.824;6.306;2022-08-19T09:45:17;101328.13;;;22.47;60.17
73455;BME280;61690;51.824;6.306;2022-08-19T09:47:45;101331.50;;;22.49;59.90
73455;BME280;61690;51.824;6.306;2022-08-19T09:50:12;101331.50;;;22.49;59.92
73455;BME280;61690;51.824;6.306;2022-08-19T09:52:37;101326.94;;;22.51;59.80
73455;BME280;61690;51.824;6.306;2022-08-19T09:55:04;101317.31;;;22.50;59.93
73455;BME280;61690;51.824;6.306;2022-08-19T09:57:36;101330.56;;;22.50;59.78
73455;BME280;61690;51.824;6.306;2022-08-19T10:00:07;101325.88;;;22.54;59.78
73455;BME280;61690;51.824;6.306;2022-08-19T10:02:34;101330.31;;;22.53;59.72
73455;BME280;61690;51.824;6.306;2022-08-19T10:05:00;101330.31;;;22.53;59.63
73455;BME280;61690;51.824;6.306;2022-08-19T10:07:47;101332.75;;;22.56;59.58
73455;BME280;61690;51.824;6.306;2022-08-19T10:10:16;101334.44;;;22.57;59.71
73455;BME280;61690;51.824;6.306;2022-08-19T10:12:41;101328.28;;;22.57;59.54
73455;BME280;61690;51.824;6.306;2022-08-19T10:15:07;101332.63;;;22.58;59.30
73455;BME280;61690;51.824;6.306;2022-08-19T10:17:33;101332.53;;;22.59;59.18
73455;BME280;61690;51.824;6.306;2022-08-19T10:20:03;101326.25;;;22.60;59.23
73455;BME280;61690;51.824;6.306;2022-08-19T10:22:29;101327.06;;;22.61;59.31
73455;BME280;61690;51.824;6.306;2022-08-19T10:24:55;101329.63;;;22.62;59.14
73455;BME280;61690;51.824;6.306;2022-08-19T10:27:21;101333.13;;;22.63;58.97
73455;BME280;61690;51.824;6.306;2022-08-19T10:29:47;101328.69;;;22.63;59.02
73455;BME280;61690;51.824;6.306;2022-08-19T10:32:13;101326.84;;;22.64;58.89
73455;BME280;61690;51.824;6.306;2022-08-19T10:34:41;101328.56;;;22.65;58.93
73455;BME280;61690;51.824;6.306;2022-08-19T10:37:07;101328.41;;;22.66;58.93
73455;BME280;61690;51.824;6.306;2022-08-19T10:39:35;101323.84;;;22.68;58.81
73455;BME280;61690;51.824;6.306;2022-08-19T10:42:05;101325.66;;;22.68;58.84
73455;BME280;61690;51.824;6.306;2022-08-19T10:44:32;101325.56;;;22.69;58.92
73455;BME280;61690;51.824;6.306;2022-08-19T10:47:03;101321.09;;;22.70;58.93
73455;BME280;61690;51.824;6.306;2022-08-19T10:49:29;101323.63;;;22.71;58.58
73455;BME280;61690;51.824;6.306;2022-08-19T10:51:56;101315.66;;;22.71;58.59
73455;BME280;61690;51.824;6.306;2022-08-19T10:54:40;101318.09;;;22.75;58.61
73455;BME280;61690;51.824;6.306;2022-08-19T10:57:24;101318.09;;;22.75;58.58
73455;BME280;61690;51.824;6.306;2022-08-19T10:59:55;101314.47;;;22.76;58.33
73455;BME280;61690;51.824;6.306;2022-08-19T11:02:21;101314.47;;;22.76;58.57
73455;BME280;61690;51.824;6.306;2022-08-19T11:04:46;101310.88;;;22.77;58.56
73455;BME280;61690;51.824;6.306;2022-08-19T11:07:17;101306.28;;;22.79;58.44
73455;BME280;61690;51.824;6.306;2022-08-19T11:09:43;101307.97;;;22.80;58.35
73455;BME280;61690;51.824;6.306;2022-08-19T11:12:09;101306.19;;;22.80;58.47
73455;BME280;61690;51.824;6.306;2022-08-19T11:14:35;101304.34;;;22.81;58.42
73455;BME280;61690;51.824;6.306;2022-08-19T11:17:02;101304.34;;;22.81;58.36
73455;BME280;61690;51.824;6.306;2022-08-19T11:19:28;101310.38;;;22.83;58.22
73455;BME280;61690;51.824;6.306;2022-08-19T11:22:15;101309.28;;;22.85;57.93
73455;BME280;61690;51.824;6.306;2022-08-19T11:24:42;101317.25;;;22.85;58.06
73455;BME280;61690;51.824;6.306;2022-08-19T11:27:09;101313.53;;;22.88;57.99
73455;BME280;61690;51.824;6.306;2022-08-19T11:29:37;101318.84;;;22.88;58.16
73455;BME280;61690;51.824;6.306;2022-08-19T11:32:21;101315.22;;;22.89;57.97
73455;BME280;61690;51.824;6.306;2022-08-19T11:34:49;101312.44;;;22.90;57.73
73455;BME280;61690;51.824;6.306;2022-08-19T11:37:14;101316.66;;;22.93;57.97
73455;BME280;61690;51.824;6.306;2022-08-19T11:39:40;101316.66;;;22.93;57.90
73455;BME280;61690;51.824;6.306;2022-08-19T11:42:06;101311.34;;;22.93;57.90
73455;BME280;61690;51.824;6.306;2022-08-19T11:44:52;101302.44;;;22.94;58.06
73455;BME280;61690;51.824;6.306;2022-08-19T11:47:18;101314.72;;;22.95;57.92
73455;BME280;61690;51.824;6.306;2022-08-19T11:49:45;101304.13;;;22.95;57.91
73455;BME280;61690;51.824;6.306;2022-08-19T11:52:10;101305.09;;;22.94;58.13
73455;BME280;61690;51.824;6.306;2022-08-19T11:54:45;101297.88;;;22.96;57.81
73455;BME280;61690;51.824;6.306;2022-08-19T11:57:10;101311.00;;;22.98;57.96
73455;BME280;61690;51.824;6.306;2022-08-19T11:59:36;101317.28;;;22.97;57.77
73455;BME280;61690;51.824;6.306;2022-08-19T12:02:01;101309.94;;;23.00;57.76
73455;BME280;61690;51.824;6.306;2022-08-19T12:04:27;101313.41;;;23.01;57.68
73455;BME280;61690;51.824;6.306;2022-08-19T12:06:52;101312.56;;;23.00;57.76
73455;BME280;61690;51.824;6.306;2022-08-19T12:09:24;101308.97;;;23.01;57.55
73455;BME280;61690;51.824;6.306;2022-08-19T12:11:49;101319.47;;;23.03;57.88
73455;BME280;61690;51.824;6.306;2022-08-19T12:14:16;101329.97;;;23.04;57.31
73455;BME280;61690;51.824;6.306;2022-08-19T12:16:44;101335.28;;;23.04;57.80
73455;BME280;61690;51.824;6.306;2022-08-19T12:19:10;101320.19;;;23.05;57.53
73455;BME280;61690;51.824;6.306;2022-08-19T12:21:47;101319.97;;;23.08;57.72
73455;BME280;61690;51.824;6.306;2022-08-19T12:24:13;101316.22;;;23.10;57.40
73455;BME280;61690;51.824;6.306;2022-08-19T12:26:38;101320.34;;;23.15;56.99
73455;BME280;61690;51.824;6.306;2022-08-19T12:29:04;101319.47;;;23.14;56.96
73455;BME280;61690;51.824;6.306;2022-08-19T12:31:29;101313.34;;;23.14;57.19
73455;BME280;61690;51.824;6.306;2022-08-19T12:33:56;101310.31;;;23.18;57.34
73455;BME280;61690;51.824;6.306;2022-08-19T12:36:27;101308.28;;;23.22;56.81
73455;BME280;61690;51.824;6.306;2022-08-19T12:38:52;101307.44;;;23.21;57.32
73455;BME280;61690;51.824;6.306;2022-08-19T12:41:18;101311.41;;;23.16;57.47
73455;BME280;61690;51.824;6.306;2022-08-19T12:43:44;101309.47;;;23.18;57.38
73455;BME280;61690;51.824;6.306;2022-08-19T12:46:11;101300.56;;;23.19;57.39
73455;BME280;61690;51.824;6.306;2022-08-19T12:48:53;101306.09;;;23.27;56.83
73455;BME280;61690;51.824;6.306;2022-08-19T12:51:19;101303.69;;;23.24;57.08
73455;BME280;61690;51.824;6.306;2022-08-19T12:53:45;101303.56;;;23.25;57.16
73455;BME280;61690;51.824;6.306;2022-08-19T12:56:12;101298.97;;;23.27;56.82
73455;BME280;61690;51.824;6.306;2022-08-19T12:58:40;101293.19;;;23.34;56.66
73455;BME280;61690;51.824;6.306;2022-08-19T13:01:16;101299.34;;;23.34;56.57
73455;BME280;61690;51.824;6.306;2022-08-19T13:03:45;101298.63;;;23.32;57.04
73455;BME280;61690;51.824;6.306;2022-08-19T13:06:11;101289.69;;;23.33;56.80
73455;BME280;61690;51.824;6.306;2022-08-19T13:08:37;101292.09;;;23.36;56.72